Thompson, ND (58278)

9:10 AM CDT on July 26, 2014 (GMT -0500)
KNDGRAND8 Elev 830 ft | 47.94 °N, 97.06 °W | Change Station

Current weather conditions updated 54 minutes ago

Clear
Clear
66.3 °F
Feels Like 66.3 °F
N
7.0
Wind Variable Wind from NE
Gusts 7.0 mph

Today is forecast to be nearly the same temperature as yesterday. Showers late tonight.

Today
High -- | Low -- °F
--% Chance of Precip.
Yesterday
High -- | Low -- °F
Precip. -- in
5:57 AM 9:11 PM
Waning Crescent, 0% visible
Pressure 29.73 in
Visibility 10.0 miles
Clouds Clear
Dew Point 56 °F
Humidity 69%
Rainfall 0.00 in
Snow Depth Not available.
UV 3 out of 12
Pollen 7.90 out of 12
Air Quality Not available.
Flu Activity Not available.
METAR KGFK 261353Z 24012KT 10SM CLR 22/15 A2973 RMK AO2 SLP066 T02170150

More Conditions Fewer Conditions

Pressure 29.73 in
Visibility 10.0 miles
Clouds Clear
Dew Point 56 °F
Humidity 69%
Rainfall 0.00 in
Snow Depth Not available.
UV 3 out of 12
Pollen 7.90 out of 12
Air Quality Not available.
Flu Activity Not available.
METAR KGFK 261353Z 24012KT 10SM CLR 22/15 A2973 RMK AO2 SLP066 T02170150

More Conditions Fewer Conditions

10-Day Weather Forecast

Almanac

Astronomy

Jul. 26, 2014 Rise Set
Actual Time 5:57 AM CDT 9:11 PM CDT
Civil Twilight 5:20 AM CDT 9:48 PM CDT
Nautical Twilight 4:31 AM CDT 10:36 PM CDT
Astronomical Twilight 3:30 AM CDT 11:37 PM CDT
Moon 5:56 AM CDT 8:39 PM CDT
Length of Visible Light 16h 27m
Length of Day
15h 13m
Tomorrow will be 2m 28s shorter.
Waning Crescent, 0% of the Moon is Illuminated
Today
Waning Crescent
Jul 26
New
Aug 3
First Quarter
Aug 10
Full
Aug 17
Last Quarter

Today's Extremes

State Highs State Lows

Community

WunderPhotos

Upload Photos

1,737,585 photos uploaded!

Nearby

Snow Depth

Station Depth Elevation
No new snow has been reported.

Earthquake Activity

City Distance Mag. Time & Date
No recent earthquake activity has been reported nearby.
Minimum magnitude displayed is 2.5.

Coastal Water Temperatures

Place Temperature
No Stations Reporting

Nearby Weather Stations

Station Location Temp. Dew Point Humidity Wind Precip. Elev Updated Type
Grand Forks, ND 66.3 °F 56 °F 69% NE  at  7.0 mph 0.00 in / hr 830 ft 8:16 AM CDT Rapid Fire

Show More Stations Show Fewer Stations